sensor_id;sensor_type;location;lat;lon;timestamp;P1;durP1;ratioP1;P2;durP2;ratioP2
2576;SDS011;1298;51.252;6.802;2022-07-17T00:01:13;0.00;;;0.00;;
2576;SDS011;1298;51.252;6.802;2022-07-17T00:03:58;0.00;;;0.00;;
2576;SDS011;1298;51.252;6.802;2022-07-17T00:06:44;0.00;;;0.00;;
2576;SDS011;1298;51.252;6.802;2022-07-17T00:09:30;0.00;;;0.00;;
2576;SDS011;1298;51.252;6.802;2022-07-17T00:12:15;0.00;;;0.00;;
2576;SDS011;1298;51.252;6.802;2022-07-17T00:15:02;0.00;;;0.00;;
2576;SDS011;1298;51.252;6.802;2022-07-17T00:17:48;0.10;;;0.10;;
2576;SDS011;1298;51.252;6.802;2022-07-17T00:20:33;0.00;;;0.00;;
2576;SDS011;1298;51.252;6.802;2022-07-17T00:23:19;0.00;;;0.00;;
2576;SDS011;1298;51.252;6.802;2022-07-17T00:26:05;0.05;;;0.05;;
2576;SDS011;1298;51.252;6.802;2022-07-17T00:28:50;0.00;;;0.00;;
2576;SDS011;1298;51.252;6.802;2022-07-17T00:31:37;0.00;;;0.00;;
2576;SDS011;1298;51.252;6.802;2022-07-17T00:34:23;0.00;;;0.00;;
2576;SDS011;1298;51.252;6.802;2022-07-17T00:37:08;0.10;;;0.10;;
2576;SDS011;1298;51.252;6.802;2022-07-17T00:39:54;0.00;;;0.00;;
2576;SDS011;1298;51.252;6.802;2022-07-17T00:42:40;0.00;;;0.00;;
2576;SDS011;1298;51.252;6.802;2022-07-17T00:45:26;0.00;;;0.00;;
2576;SDS011;1298;51.252;6.802;2022-07-17T00:48:13;0.10;;;0.10;;
2576;SDS011;1298;51.252;6.802;2022-07-17T00:50:58;0.10;;;0.10;;
2576;SDS011;1298;51.252;6.802;2022-07-17T00:53:44;0.08;;;0.08;;
2576;SDS011;1298;51.252;6.802;2022-07-17T00:56:30;0.10;;;0.10;;
2576;SDS011;1298;51.252;6.802;2022-07-17T00:59:17;0.00;;;0.00;;
2576;SDS011;1298;51.252;6.802;2022-07-17T01:02:04;0.00;;;0.00;;
2576;SDS011;1298;51.252;6.802;2022-07-17T01:04:51;0.00;;;0.00;;
2576;SDS011;1298;51.252;6.802;2022-07-17T01:07:37;0.00;;;0.00;;
2576;SDS011;1298;51.252;6.802;2022-07-17T01:10:22;0.00;;;0.00;;
2576;SDS011;1298;51.252;6.802;2022-07-17T01:13:08;0.00;;;0.00;;
2576;SDS011;1298;51.252;6.802;2022-07-17T01:15:53;0.00;;;0.00;;
2576;SDS011;1298;51.252;6.802;2022-07-17T01:18:39;0.00;;;0.00;;
2576;SDS011;1298;51.252;6.802;2022-07-17T01:21:37;0.00;;;0.00;;
2576;SDS011;1298;51.252;6.802;2022-07-17T01:24:23;0.00;;;0.00;;
2576;SDS011;1298;51.252;6.802;2022-07-17T01:27:09;0.10;;;0.10;;
2576;SDS011;1298;51.252;6.802;2022-07-17T01:29:56;0.00;;;0.00;;
2576;SDS011;1298;51.252;6.802;2022-07-17T01:32:42;0.10;;;0.10;;
2576;SDS011;1298;51.252;6.802;2022-07-17T01:35:28;0.00;;;0.00;;
2576;SDS011;1298;51.252;6.802;2022-07-17T01:38:14;0.00;;;0.00;;
2576;SDS011;1298;51.252;6.802;2022-07-17T01:41:00;0.00;;;0.00;;
2576;SDS011;1298;51.252;6.802;2022-07-17T01:43:46;0.00;;;0.00;;
2576;SDS011;1298;51.252;6.802;2022-07-17T01:46:31;0.00;;;0.00;;
2576;SDS011;1298;51.252;6.802;2022-07-17T01:49:17;0.00;;;0.00;;
2576;SDS011;1298;51.252;6.802;2022-07-17T01:52:03;0.03;;;0.03;;
2576;SDS011;1298;51.252;6.802;2022-07-17T01:54:50;0.00;;;0.00;;
2576;SDS011;1298;51.252;6.802;2022-07-17T01:57:35;0.00;;;0.00;;
2576;SDS011;1298;51.252;6.802;2022-07-17T02:00:21;0.00;;;0.00;;
2576;SDS011;1298;51.252;6.802;2022-07-17T02:03:08;0.00;;;0.00;;
2576;SDS011;1298;51.252;6.802;2022-07-17T02:05:54;0.00;;;0.00;;
2576;SDS011;1298;51.252;6.802;2022-07-17T02:08:39;0.00;;;0.00;;
2576;SDS011;1298;51.252;6.802;2022-07-17T02:11:26;0.00;;;0.00;;
2576;SDS011;1298;51.252;6.802;2022-07-17T02:14:12;0.10;;;0.10;;
2576;SDS011;1298;51.252;6.802;2022-07-17T02:16:57;0.00;;;0.00;;
2576;SDS011;1298;51.252;6.802;2022-07-17T02:19:43;0.00;;;0.00;;
2576;SDS011;1298;51.252;6.802;2022-07-17T02:22:28;0.00;;;0.00;;
2576;SDS011;1298;51.252;6.802;2022-07-17T02:25:14;0.00;;;0.00;;
2576;SDS011;1298;51.252;6.802;2022-07-17T02:28:01;0.00;;;0.00;;
2576;SDS011;1298;51.252;6.802;2022-07-17T02:30:46;0.00;;;0.00;;
2576;SDS011;1298;51.252;6.802;2022-07-17T02:33:32;0.00;;;0.00;;
2576;SDS011;1298;51.252;6.802;2022-07-17T02:36:17;0.00;;;0.00;;
2576;SDS011;1298;51.252;6.802;2022-07-17T02:39:03;0.00;;;0.00;;
2576;SDS011;1298;51.252;6.802;2022-07-17T02:41:48;0.00;;;0.00;;
2576;SDS011;1298;51.252;6.802;2022-07-17T02:44:35;0.00;;;0.00;;
2576;SDS011;1298;51.252;6.802;2022-07-17T02:47:21;0.00;;;0.00;;
2576;SDS011;1298;51.252;6.802;2022-07-17T02:50:07;0.00;;;0.00;;
2576;SDS011;1298;51.252;6.802;2022-07-17T02:52:54;0.00;;;0.00;;
2576;SDS011;1298;51.252;6.802;2022-07-17T02:55:39;0.10;;;0.10;;
2576;SDS011;1298;51.252;6.802;2022-07-17T02:58:25;0.00;;;0.00;;
2576;SDS011;1298;51.252;6.802;2022-07-17T03:01:12;0.00;;;0.00;;
2576;SDS011;1298;51.252;6.802;2022-07-17T03:03:57;0.00;;;0.00;;
2576;SDS011;1298;51.252;6.802;2022-07-17T03:06:42;0.00;;;0.00;;
2576;SDS011;1298;51.252;6.802;2022-07-17T03:09:28;0.00;;;0.00;;
2576;SDS011;1298;51.252;6.802;2022-07-17T03:12:13;0.00;;;0.00;;
2576;SDS011;1298;51.252;6.802;2022-07-17T03:14:59;0.00;;;0.00;;
2576;SDS011;1298;51.252;6.802;2022-07-17T03:17:46;0.00;;;0.00;;
2576;SDS011;1298;51.252;6.802;2022-07-17T03:20:31;0.00;;;0.00;;
2576;SDS011;1298;51.252;6.802;2022-07-17T03:23:17;0.00;;;0.00;;
2576;SDS011;1298;51.252;6.802;2022-07-17T03:26:02;0.00;;;0.00;;
2576;SDS011;1298;51.252;6.802;2022-07-17T03:28:47;0.00;;;0.00;;
2576;SDS011;1298;51.252;6.802;2022-07-17T03:31:33;0.00;;;0.00;;
2576;SDS011;1298;51.252;6.802;2022-07-17T03:34:20;0.00;;;0.00;;
2576;SDS011;1298;51.252;6.802;2022-07-17T03:37:05;0.00;;;0.00;;
2576;SDS011;1298;51.252;6.802;2022-07-17T03:39:51;0.00;;;0.00;;
2576;SDS011;1298;51.252;6.802;2022-07-17T03:42:36;0.00;;;0.00;;
2576;SDS011;1298;51.252;6.802;2022-07-17T03:45:22;0.00;;;0.00;;
2576;SDS011;1298;51.252;6.802;2022-07-17T03:48:08;0.00;;;0.00;;
2576;SDS011;1298;51.252;6.802;2022-07-17T03:50:55;0.00;;;0.00;;
2576;SDS011;1298;51.252;6.802;2022-07-17T03:53:40;0.00;;;0.00;;
2576;SDS011;1298;51.252;6.802;2022-07-17T03:56:26;0.00;;;0.00;;
2576;SDS011;1298;51.252;6.802;2022-07-17T03:59:11;0.10;;;0.10;;
2576;SDS011;1298;51.252;6.802;2022-07-17T04:01:57;0.00;;;0.00;;
2576;SDS011;1298;51.252;6.802;2022-07-17T04:04:43;0.00;;;0.00;;
2576;SDS011;1298;51.252;6.802;2022-07-17T04:07:29;0.00;;;0.00;;
2576;SDS011;1298;51.252;6.802;2022-07-17T04:10:15;0.00;;;0.00;;
2576;SDS011;1298;51.252;6.802;2022-07-17T04:13:00;0.00;;;0.00;;
2576;SDS011;1298;51.252;6.802;2022-07-17T04:15:46;0.00;;;0.00;;
2576;SDS011;1298;51.252;6.802;2022-07-17T04:18:36;0.10;;;0.10;;
2576;SDS011;1298;51.252;6.802;2022-07-17T04:21:21;0.00;;;0.00;;
2576;SDS011;1298;51.252;6.802;2022-07-17T04:24:08;0.00;;;0.00;;
2576;SDS011;1298;51.252;6.802;2022-07-17T04:26:54;0.00;;;0.00;;
2576;SDS011;1298;51.252;6.802;2022-07-17T04:29:39;0.00;;;0.00;;
2576;SDS011;1298;51.252;6.802;2022-07-17T04:32:25;0.00;;;0.00;;
2576;SDS011;1298;51.252;6.802;2022-07-17T04:35:10;0.00;;;0.00;;
2576;SDS011;1298;51.252;6.802;2022-07-17T04:37:56;0.00;;;0.00;;
2576;SDS011;1298;51.252;6.802;2022-07-17T04:40:43;0.00;;;0.00;;
2576;SDS011;1298;51.252;6.802;2022-07-17T04:43:30;0.00;;;0.00;;
2576;SDS011;1298;51.252;6.802;2022-07-17T04:46:15;0.00;;;0.00;;
2576;SDS011;1298;51.252;6.802;2022-07-17T04:49:01;0.00;;;0.00;;
2576;SDS011;1298;51.252;6.802;2022-07-17T04:51:46;0.00;;;0.00;;
2576;SDS011;1298;51.252;6.802;2022-07-17T04:54:32;0.00;;;0.00;;
2576;SDS011;1298;51.252;6.802;2022-07-17T04:57:19;0.00;;;0.00;;
2576;SDS011;1298;51.252;6.802;2022-07-17T05:00:05;0.00;;;0.00;;
2576;SDS011;1298;51.252;6.802;2022-07-17T05:02:52;0.00;;;0.00;;
2576;SDS011;1298;51.252;6.802;2022-07-17T05:05:38;0.00;;;0.00;;
2576;SDS011;1298;51.252;6.802;2022-07-17T05:08:24;0.00;;;0.00;;
2576;SDS011;1298;51.252;6.802;2022-07-17T05:11:09;0.05;;;0.05;;
2576;SDS011;1298;51.252;6.802;2022-07-17T05:13:56;0.10;;;0.10;;
2576;SDS011;1298;51.252;6.802;2022-07-17T05:16:42;0.10;;;0.10;;
2576;SDS011;1298;51.252;6.802;2022-07-17T05:19:27;0.00;;;0.00;;
2576;SDS011;1298;51.252;6.802;2022-07-17T05:22:13;0.00;;;0.00;;
2576;SDS011;1298;51.252;6.802;2022-07-17T05:24:59;0.00;;;0.00;;
2576;SDS011;1298;51.252;6.802;2022-07-17T05:27:44;0.00;;;0.00;;
2576;SDS011;1298;51.252;6.802;2022-07-17T05:30:31;0.00;;;0.00;;
2576;SDS011;1298;51.252;6.802;2022-07-17T05:33:17;0.00;;;0.00;;
2576;SDS011;1298;51.252;6.802;2022-07-17T05:36:03;0.00;;;0.00;;
2576;SDS011;1298;51.252;6.802;2022-07-17T05:38:48;0.00;;;0.00;;
2576;SDS011;1298;51.252;6.802;2022-07-17T05:41:34;0.00;;;0.00;;
2576;SDS011;1298;51.252;6.802;2022-07-17T05:44:19;0.00;;;0.00;;
2576;SDS011;1298;51.252;6.802;2022-07-17T05:47:06;0.00;;;0.00;;
2576;SDS011;1298;51.252;6.802;2022-07-17T05:49:52;0.00;;;0.00;;
2576;SDS011;1298;51.252;6.802;2022-07-17T05:52:37;0.00;;;0.00;;
2576;SDS011;1298;51.252;6.802;2022-07-17T05:55:23;0.00;;;0.00;;
2576;SDS011;1298;51.252;6.802;2022-07-17T05:58:08;0.00;;;0.00;;
2576;SDS011;1298;51.252;6.802;2022-07-17T06:00:54;0.00;;;0.00;;
2576;SDS011;1298;51.252;6.802;2022-07-17T06:03:41;0.00;;;0.00;;
2576;SDS011;1298;51.252;6.802;2022-07-17T06:06:27;0.00;;;0.00;;
2576;SDS011;1298;51.252;6.802;2022-07-17T06:09:12;0.00;;;0.00;;
2576;SDS011;1298;51.252;6.802;2022-07-17T06:11:58;0.00;;;0.00;;
2576;SDS011;1298;51.252;6.802;2022-07-17T06:14:43;0.00;;;0.00;;
2576;SDS011;1298;51.252;6.802;2022-07-17T06:17:29;0.05;;;0.05;;
2576;SDS011;1298;51.252;6.802;2022-07-17T06:20:16;0.00;;;0.00;;
2576;SDS011;1298;51.252;6.802;2022-07-17T06:23:03;0.00;;;0.00;;
2576;SDS011;1298;51.252;6.802;2022-07-17T06:25:48;0.00;;;0.00;;
2576;SDS011;1298;51.252;6.802;2022-07-17T06:28:33;0.00;;;0.00;;
2576;SDS011;1298;51.252;6.802;2022-07-17T06:31:19;0.00;;;0.00;;
2576;SDS011;1298;51.252;6.802;2022-07-17T06:34:06;0.00;;;0.00;;
2576;SDS011;1298;51.252;6.802;2022-07-17T06:36:52;0.10;;;0.00;;
2576;SDS011;1298;51.252;6.802;2022-07-17T06:39:38;0.10;;;0.00;;
2576;SDS011;1298;51.252;6.802;2022-07-17T06:42:24;0.10;;;0.10;;
2576;SDS011;1298;51.252;6.802;2022-07-17T06:45:09;0.10;;;0.00;;
2576;SDS011;1298;51.252;6.802;2022-07-17T06:47:55;0.08;;;0.00;;
2576;SDS011;1298;51.252;6.802;2022-07-17T06:50:40;0.10;;;0.00;;
2576;SDS011;1298;51.252;6.802;2022-07-17T06:53:27;0.10;;;0.00;;
2576;SDS011;1298;51.252;6.802;2022-07-17T06:56:13;0.10;;;0.10;;
2576;SDS011;1298;51.252;6.802;2022-07-17T06:58:58;0.10;;;0.10;;
2576;SDS011;1298;51.252;6.802;2022-07-17T07:01:44;0.10;;;0.03;;
2576;SDS011;1298;51.252;6.802;2022-07-17T07:04:29;0.10;;;0.00;;
2576;SDS011;1298;51.252;6.802;2022-07-17T07:07:14;0.03;;;0.00;;
2576;SDS011;1298;51.252;6.802;2022-07-17T07:10:01;0.10;;;0.10;;
2576;SDS011;1298;51.252;6.802;2022-07-17T07:12:47;0.10;;;0.00;;
2576;SDS011;1298;51.252;6.802;2022-07-17T07:15:32;0.10;;;0.00;;
2576;SDS011;1298;51.252;6.802;2022-07-17T07:18:18;0.03;;;0.03;;
2576;SDS011;1298;51.252;6.802;2022-07-17T07:21:03;0.10;;;0.10;;
2576;SDS011;1298;51.252;6.802;2022-07-17T07:23:49;0.00;;;0.00;;
2576;SDS011;1298;51.252;6.802;2022-07-17T07:26:36;0.10;;;0.10;;
2576;SDS011;1298;51.252;6.802;2022-07-17T07:29:21;0.10;;;0.00;;
2576;SDS011;1298;51.252;6.802;2022-07-17T07:32:07;0.10;;;0.00;;
2576;SDS011;1298;51.252;6.802;2022-07-17T07:34:52;0.10;;;0.08;;
2576;SDS011;1298;51.252;6.802;2022-07-17T07:37:38;0.10;;;0.08;;
2576;SDS011;1298;51.252;6.802;2022-07-17T07:40:24;0.10;;;0.00;;
2576;SDS011;1298;51.252;6.802;2022-07-17T07:43:11;0.10;;;0.03;;
2576;SDS011;1298;51.252;6.802;2022-07-17T07:45:56;0.10;;;0.00;;
2576;SDS011;1298;51.252;6.802;2022-07-17T07:48:42;0.10;;;0.08;;
2576;SDS011;1298;51.252;6.802;2022-07-17T07:51:27;0.10;;;0.00;;
2576;SDS011;1298;51.252;6.802;2022-07-17T07:54:13;0.10;;;0.10;;
2576;SDS011;1298;51.252;6.802;2022-07-17T07:56:58;0.10;;;0.03;;
2576;SDS011;1298;51.252;6.802;2022-07-17T07:59:45;0.10;;;0.00;;
2576;SDS011;1298;51.252;6.802;2022-07-17T08:02:31;0.03;;;0.00;;
2576;SDS011;1298;51.252;6.802;2022-07-17T08:05:17;0.10;;;0.10;;
2576;SDS011;1298;51.252;6.802;2022-07-17T08:08:03;0.10;;;0.10;;
2576;SDS011;1298;51.252;6.802;2022-07-17T08:10:48;0.10;;;0.03;;
2576;SDS011;1298;51.252;6.802;2022-07-17T08:13:34;0.08;;;0.00;;
2576;SDS011;1298;51.252;6.802;2022-07-17T08:16:21;0.10;;;0.00;;
2576;SDS011;1298;51.252;6.802;2022-07-17T08:19:06;0.03;;;0.00;;
2576;SDS011;1298;51.252;6.802;2022-07-17T08:21:52;0.10;;;0.00;;
2576;SDS011;1298;51.252;6.802;2022-07-17T08:24:37;0.10;;;0.10;;
2576;SDS011;1298;51.252;6.802;2022-07-17T08:27:23;0.08;;;0.00;;
2576;SDS011;1298;51.252;6.802;2022-07-17T08:30:09;0.10;;;0.08;;
2576;SDS011;1298;51.252;6.802;2022-07-17T08:32:58;0.10;;;0.00;;
2576;SDS011;1298;51.252;6.802;2022-07-17T08:35:44;0.10;;;0.00;;
2576;SDS011;1298;51.252;6.802;2022-07-17T08:38:29;0.10;;;0.08;;
2576;SDS011;1298;51.252;6.802;2022-07-17T08:41:15;0.10;;;0.00;;
2576;SDS011;1298;51.252;6.802;2022-07-17T08:44:05;0.10;;;0.08;;
2576;SDS011;1298;51.252;6.802;2022-07-17T08:46:50;0.10;;;0.10;;
2576;SDS011;1298;51.252;6.802;2022-07-17T08:49:43;0.10;;;0.00;;
2576;SDS011;1298;51.252;6.802;2022-07-17T08:52:31;0.10;;;0.10;;
2576;SDS011;1298;51.252;6.802;2022-07-17T08:55:17;0.10;;;0.10;;
2576;SDS011;1298;51.252;6.802;2022-07-17T08:58:02;0.10;;;0.10;;
2576;SDS011;1298;51.252;6.802;2022-07-17T09:00:49;0.10;;;0.00;;
2576;SDS011;1298;51.252;6.802;2022-07-17T09:03:35;0.10;;;0.00;;
2576;SDS011;1298;51.252;6.802;2022-07-17T09:06:21;0.10;;;0.10;;
2576;SDS011;1298;51.252;6.802;2022-07-17T09:09:11;0.10;;;0.03;;
2576;SDS011;1298;51.252;6.802;2022-07-17T09:11:58;0.10;;;0.00;;
2576;SDS011;1298;51.252;6.802;2022-07-17T09:14:44;0.10;;;0.10;;
2576;SDS011;1298;51.252;6.802;2022-07-17T09:17:29;0.17;;;0.17;;
2576;SDS011;1298;51.252;6.802;2022-07-17T09:20:15;0.10;;;0.00;;
2576;SDS011;1298;51.252;6.802;2022-07-17T09:23:04;0.10;;;0.00;;
2576;SDS011;1298;51.252;6.802;2022-07-17T09:25:51;0.10;;;0.10;;
2576;SDS011;1298;51.252;6.802;2022-07-17T09:28:44;0.10;;;0.10;;
2576;SDS011;1298;51.252;6.802;2022-07-17T09:31:31;0.10;;;0.05;;
2576;SDS011;1298;51.252;6.802;2022-07-17T09:34:17;0.10;;;0.00;;
2576;SDS011;1298;51.252;6.802;2022-07-17T09:37:03;0.25;;;0.25;;
2576;SDS011;1298;51.252;6.802;2022-07-17T09:39:50;0.10;;;0.10;;
2576;SDS011;1298;51.252;6.802;2022-07-17T09:42:37;0.10;;;0.10;;
2576;SDS011;1298;51.252;6.802;2022-07-17T09:45:25;0.10;;;0.00;;
2576;SDS011;1298;51.252;6.802;2022-07-17T09:48:11;0.10;;;0.10;;
2576;SDS011;1298;51.252;6.802;2022-07-17T09:50:57;0.10;;;0.10;;
2576;SDS011;1298;51.252;6.802;2022-07-17T09:53:43;0.10;;;0.10;;
2576;SDS011;1298;51.252;6.802;2022-07-17T09:56:33;0.10;;;0.05;;
2576;SDS011;1298;51.252;6.802;2022-07-17T09:59:20;0.10;;;0.10;;
2576;SDS011;1298;51.252;6.802;2022-07-17T10:02:06;0.10;;;0.00;;
2576;SDS011;1298;51.252;6.802;2022-07-17T10:04:52;0.10;;;0.05;;
2576;SDS011;1298;51.252;6.802;2022-07-17T10:07:38;0.10;;;0.00;;
2576;SDS011;1298;51.252;6.802;2022-07-17T10:10:25;0.10;;;0.08;;
2576;SDS011;1298;51.252;6.802;2022-07-17T10:13:12;0.10;;;0.10;;
2576;SDS011;1298;51.252;6.802;2022-07-17T10:15:59;0.10;;;0.10;;
2576;SDS011;1298;51.252;6.802;2022-07-17T10:18:45;0.10;;;0.10;;
2576;SDS011;1298;51.252;6.802;2022-07-17T10:21:31;0.10;;;0.03;;
2576;SDS011;1298;51.252;6.802;2022-07-17T10:24:17;0.10;;;0.10;;
2576;SDS011;1298;51.252;6.802;2022-07-17T10:27:02;0.10;;;0.08;;
2576;SDS011;1298;51.252;6.802;2022-07-17T10:29:59;0.10;;;0.08;;
2576;SDS011;1298;51.252;6.802;2022-07-17T10:32:50;0.10;;;0.00;;
2576;SDS011;1298;51.252;6.802;2022-07-17T10:35:43;0.47;;;0.47;;
2576;SDS011;1298;51.252;6.802;2022-07-17T10:38:40;0.10;;;0.00;;
2576;SDS011;1298;51.252;6.802;2022-07-17T10:41:27;0.10;;;0.10;;
2576;SDS011;1298;51.252;6.802;2022-07-17T10:44:12;0.10;;;0.10;;
2576;SDS011;1298;51.252;6.802;2022-07-17T10:47:09;0.10;;;0.00;;
2576;SDS011;1298;51.252;6.802;2022-07-17T10:49:55;0.10;;;0.10;;
2576;SDS011;1298;51.252;6.802;2022-07-17T10:52:41;0.10;;;0.10;;
2576;SDS011;1298;51.252;6.802;2022-07-17T10:55:26;0.10;;;0.10;;
2576;SDS011;1298;51.252;6.802;2022-07-17T10:58:20;0.10;;;0.10;;
2576;SDS011;1298;51.252;6.802;2022-07-17T11:01:08;0.10;;;0.10;;
2576;SDS011;1298;51.252;6.802;2022-07-17T11:03:58;0.10;;;0.05;;
2576;SDS011;1298;51.252;6.802;2022-07-17T11:06:45;0.10;;;0.10;;
2576;SDS011;1298;51.252;6.802;2022-07-17T11:09:30;0.15;;;0.10;;
2576;SDS011;1298;51.252;6.802;2022-07-17T11:12:17;0.10;;;0.10;;
2576;SDS011;1298;51.252;6.802;2022-07-17T11:15:03;0.10;;;0.10;;
2576;SDS011;1298;51.252;6.802;2022-07-17T11:17:50;0.10;;;0.10;;
2576;SDS011;1298;51.252;6.802;2022-07-17T11:20:38;0.10;;;0.10;;
2576;SDS011;1298;51.252;6.802;2022-07-17T11:23:32;0.10;;;0.10;;
2576;SDS011;1298;51.252;6.802;2022-07-17T11:26:18;0.20;;;0.20;;
2576;SDS011;1298;51.252;6.802;2022-07-17T11:29:04;0.10;;;0.00;;
2576;SDS011;1298;51.252;6.802;2022-07-17T11:31:54;0.10;;;0.00;;
2576;SDS011;1298;51.252;6.802;2022-07-17T11:34:40;0.10;;;0.10;;
2576;SDS011;1298;51.252;6.802;2022-07-17T11:37:29;0.00;;;0.00;;
2576;SDS011;1298;51.252;6.802;2022-07-17T11:40:15;0.00;;;0.00;;
2576;SDS011;1298;51.252;6.802;2022-07-17T11:43:00;0.05;;;0.05;;
2576;SDS011;1298;51.252;6.802;2022-07-17T11:45:48;0.10;;;0.00;;
2576;SDS011;1298;51.252;6.802;2022-07-17T11:48:34;0.05;;;0.00;;
2576;SDS011;1298;51.252;6.802;2022-07-17T11:51:19;0.08;;;0.08;;
2576;SDS011;1298;51.252;6.802;2022-07-17T11:54:07;0.10;;;0.05;;
2576;SDS011;1298;51.252;6.802;2022-07-17T11:56:54;0.00;;;0.00;;
2576;SDS011;1298;51.252;6.802;2022-07-17T11:59:41;0.10;;;0.10;;
2576;SDS011;1298;51.252;6.802;2022-07-17T12:02:28;0.10;;;0.08;;
2576;SDS011;1298;51.252;6.802;2022-07-17T12:05:24;0.10;;;0.10;;
2576;SDS011;1298;51.252;6.802;2022-07-17T12:08:17;0.20;;;0.20;;
2576;SDS011;1298;51.252;6.802;2022-07-17T12:11:06;0.20;;;0.20;;
2576;SDS011;1298;51.252;6.802;2022-07-17T12:13:52;0.10;;;0.10;;
2576;SDS011;1298;51.252;6.802;2022-07-17T12:16:38;0.10;;;0.10;;
2576;SDS011;1298;51.252;6.802;2022-07-17T12:19:24;0.10;;;0.10;;
2576;SDS011;1298;51.252;6.802;2022-07-17T12:22:09;0.10;;;0.10;;
2576;SDS011;1298;51.252;6.802;2022-07-17T12:24:55;0.10;;;0.00;;
2576;SDS011;1298;51.252;6.802;2022-07-17T12:27:42;0.20;;;0.20;;
2576;SDS011;1298;51.252;6.802;2022-07-17T12:30:27;0.20;;;0.20;;
2576;SDS011;1298;51.252;6.802;2022-07-17T12:33:14;0.15;;;0.15;;
2576;SDS011;1298;51.252;6.802;2022-07-17T12:36:02;0.20;;;0.20;;
2576;SDS011;1298;51.252;6.802;2022-07-17T12:38:47;0.10;;;0.00;;
2576;SDS011;1298;51.252;6.802;2022-07-17T12:41:33;0.10;;;0.03;;
2576;SDS011;1298;51.252;6.802;2022-07-17T12:44:20;0.10;;;0.10;;
2576;SDS011;1298;51.252;6.802;2022-07-17T12:47:06;0.10;;;0.10;;
2576;SDS011;1298;51.252;6.802;2022-07-17T12:49:51;0.10;;;0.05;;
2576;SDS011;1298;51.252;6.802;2022-07-17T12:52:37;0.10;;;0.10;;
2576;SDS011;1298;51.252;6.802;2022-07-17T12:55:22;0.10;;;0.10;;
2576;SDS011;1298;51.252;6.802;2022-07-17T12:58:08;0.20;;;0.20;;
2576;SDS011;1298;51.252;6.802;2022-07-17T13:00:55;0.17;;;0.17;;
2576;SDS011;1298;51.252;6.802;2022-07-17T13:03:40;0.00;;;0.00;;
2576;SDS011;1298;51.252;6.802;2022-07-17T13:06:26;0.10;;;0.10;;
2576;SDS011;1298;51.252;6.802;2022-07-17T13:09:17;0.10;;;0.10;;
2576;SDS011;1298;51.252;6.802;2022-07-17T13:12:03;0.10;;;0.10;;
2576;SDS011;1298;51.252;6.802;2022-07-17T13:14:48;0.10;;;0.00;;
2576;SDS011;1298;51.252;6.802;2022-07-17T13:17:36;0.05;;;0.05;;
2576;SDS011;1298;51.252;6.802;2022-07-17T13:20:22;0.10;;;0.10;;
2576;SDS011;1298;51.252;6.802;2022-07-17T13:23:07;0.10;;;0.10;;
2576;SDS011;1298;51.252;6.802;2022-07-17T13:25:53;0.17;;;0.17;;
2576;SDS011;1298;51.252;6.802;2022-07-17T13:28:38;0.17;;;0.17;;
2576;SDS011;1298;51.252;6.802;2022-07-17T13:31:25;0.10;;;0.10;;
2576;SDS011;1298;51.252;6.802;2022-07-17T13:34:13;0.05;;;0.05;;
2576;SDS011;1298;51.252;6.802;2022-07-17T13:36:58;0.20;;;0.20;;
2576;SDS011;1298;51.252;6.802;2022-07-17T13:39:44;0.00;;;0.00;;
2576;SDS011;1298;51.252;6.802;2022-07-17T13:42:30;0.10;;;0.10;;
2576;SDS011;1298;51.252;6.802;2022-07-17T13:45:15;0.10;;;0.10;;
2576;SDS011;1298;51.252;6.802;2022-07-17T13:48:01;0.10;;;0.10;;
2576;SDS011;1298;51.252;6.802;2022-07-17T13:50:51;0.10;;;0.07;;
2576;SDS011;1298;51.252;6.802;2022-07-17T13:53:36;0.10;;;0.10;;
2576;SDS011;1298;51.252;6.802;2022-07-17T13:56:22;0.10;;;0.10;;
2576;SDS011;1298;51.252;6.802;2022-07-17T13:59:10;0.30;;;0.30;;
2576;SDS011;1298;51.252;6.802;2022-07-17T14:01:58;0.10;;;0.10;;
2576;SDS011;1298;51.252;6.802;2022-07-17T14:04:44;0.20;;;0.20;;
2576;SDS011;1298;51.252;6.802;2022-07-17T14:07:31;0.20;;;0.10;;
2576;SDS011;1298;51.252;6.802;2022-07-17T14:10:26;0.10;;;0.10;;
2576;SDS011;1298;51.252;6.802;2022-07-17T14:13:12;0.10;;;0.10;;
2576;SDS011;1298;51.252;6.802;2022-07-17T14:15:58;0.27;;;0.27;;
2576;SDS011;1298;51.252;6.802;2022-07-17T14:18:43;0.00;;;0.00;;
2576;SDS011;1298;51.252;6.802;2022-07-17T14:21:42;22.77;;;16.97;;
2576;SDS011;1298;51.252;6.802;2022-07-17T14:24:29;55.30;;;33.55;;
2576;SDS011;1298;51.252;6.802;2022-07-17T14:27:15;54.40;;;33.00;;
2576;SDS011;1298;51.252;6.802;2022-07-17T14:30:00;54.88;;;33.33;;
2576;SDS011;1298;51.252;6.802;2022-07-17T14:32:46;53.70;;;33.42;;
2576;SDS011;1298;51.252;6.802;2022-07-17T14:35:31;47.85;;;31.70;;
2576;SDS011;1298;51.252;6.802;2022-07-17T14:38:18;47.10;;;31.80;;
2576;SDS011;1298;51.252;6.802;2022-07-17T14:41:05;47.95;;;31.30;;
2576;SDS011;1298;51.252;6.802;2022-07-17T14:43:50;53.38;;;31.67;;
2576;SDS011;1298;51.252;6.802;2022-07-17T14:46:36;54.80;;;32.97;;
2576;SDS011;1298;51.252;6.802;2022-07-17T14:49:21;52.72;;;31.55;;
2576;SDS011;1298;51.252;6.802;2022-07-17T14:52:07;52.67;;;33.13;;
2576;SDS011;1298;51.252;6.802;2022-07-17T14:54:52;44.05;;;31.85;;
2576;SDS011;1298;51.252;6.802;2022-07-17T14:57:39;48.40;;;32.45;;
2576;SDS011;1298;51.252;6.802;2022-07-17T15:00:25;45.67;;;32.05;;
2576;SDS011;1298;51.252;6.802;2022-07-17T15:03:10;40.00;;;30.63;;
2576;SDS011;1298;51.252;6.802;2022-07-17T15:05:56;39.90;;;30.27;;
2576;SDS011;1298;51.252;6.802;2022-07-17T15:08:46;40.15;;;30.75;;
2576;SDS011;1298;51.252;6.802;2022-07-17T15:11:31;39.50;;;30.27;;
2576;SDS011;1298;51.252;6.802;2022-07-17T15:14:18;36.90;;;30.40;;
2576;SDS011;1298;51.252;6.802;2022-07-17T15:17:04;40.78;;;31.20;;
2576;SDS011;1298;51.252;6.802;2022-07-17T15:19:49;46.55;;;32.28;;
2576;SDS011;1298;51.252;6.802;2022-07-17T15:22:35;47.92;;;33.25;;
2576;SDS011;1298;51.252;6.802;2022-07-17T15:25:20;45.65;;;32.15;;
2576;SDS011;1298;51.252;6.802;2022-07-17T15:28:06;45.70;;;32.75;;
2576;SDS011;1298;51.252;6.802;2022-07-17T15:30:53;44.55;;;32.25;;
2576;SDS011;1298;51.252;6.802;2022-07-17T15:33:39;45.38;;;31.58;;
2576;SDS011;1298;51.252;6.802;2022-07-17T15:36:25;43.53;;;30.80;;
2576;SDS011;1298;51.252;6.802;2022-07-17T15:39:11;43.80;;;31.27;;
2576;SDS011;1298;51.252;6.802;2022-07-17T15:41:56;42.72;;;31.60;;
2576;SDS011;1298;51.252;6.802;2022-07-17T15:44:42;44.33;;;31.67;;
2576;SDS011;1298;51.252;6.802;2022-07-17T15:47:29;42.67;;;31.75;;
2576;SDS011;1298;51.252;6.802;2022-07-17T15:50:15;40.38;;;30.75;;
2576;SDS011;1298;51.252;6.802;2022-07-17T15:53:01;38.47;;;29.60;;
2576;SDS011;1298;51.252;6.802;2022-07-17T15:55:46;37.28;;;29.52;;
2576;SDS011;1298;51.252;6.802;2022-07-17T15:58:32;80.53;;;43.20;;
2576;SDS011;1298;51.252;6.802;2022-07-17T16:01:17;77.82;;;40.55;;
2576;SDS011;1298;51.252;6.802;2022-07-17T16:04:04;69.32;;;38.75;;
2576;SDS011;1298;51.252;6.802;2022-07-17T16:06:50;68.65;;;37.58;;
2576;SDS011;1298;51.252;6.802;2022-07-17T16:09:36;102.80;;;43.10;;
2576;SDS011;1298;51.252;6.802;2022-07-17T16:12:22;71.55;;;36.60;;
2576;SDS011;1298;51.252;6.802;2022-07-17T16:15:08;67.75;;;35.10;;
2576;SDS011;1298;51.252;6.802;2022-07-17T16:17:54;76.43;;;39.33;;
2576;SDS011;1298;51.252;6.802;2022-07-17T16:20:40;64.72;;;35.08;;
2576;SDS011;1298;51.252;6.802;2022-07-17T16:23:26;63.08;;;32.80;;
2576;SDS011;1298;51.252;6.802;2022-07-17T16:26:11;58.63;;;33.28;;
2576;SDS011;1298;51.252;6.802;2022-07-17T16:28:58;62.15;;;35.35;;
2576;SDS011;1298;51.252;6.802;2022-07-17T16:31:44;61.13;;;35.53;;
2576;SDS011;1298;51.252;6.802;2022-07-17T16:34:30;58.53;;;34.17;;
2576;SDS011;1298;51.252;6.802;2022-07-17T16:37:18;48.13;;;32.10;;
2576;SDS011;1298;51.252;6.802;2022-07-17T16:40:04;61.05;;;35.03;;
2576;SDS011;1298;51.252;6.802;2022-07-17T16:42:50;57.28;;;32.30;;
2576;SDS011;1298;51.252;6.802;2022-07-17T16:45:35;62.65;;;34.83;;
2576;SDS011;1298;51.252;6.802;2022-07-17T16:48:21;57.55;;;34.72;;
2576;SDS011;1298;51.252;6.802;2022-07-17T16:51:06;64.53;;;36.30;;
2576;SDS011;1298;51.252;6.802;2022-07-17T16:53:53;57.55;;;33.00;;
2576;SDS011;1298;51.252;6.802;2022-07-17T16:56:38;57.50;;;33.45;;
2576;SDS011;1298;51.252;6.802;2022-07-17T16:59:24;51.65;;;33.28;;
2576;SDS011;1298;51.252;6.802;2022-07-17T17:02:09;45.17;;;31.58;;
2576;SDS011;1298;51.252;6.802;2022-07-17T17:04:55;44.28;;;31.20;;
2576;SDS011;1298;51.252;6.802;2022-07-17T17:07:41;43.95;;;31.30;;